Time;durP1;ratioP1;P1;durP2;ratioP2;P2;SDS_P1;SDS_P2;PMS_P1;PMS_P2;Temp;Humidity;BMP_temperature;BMP_pressure;BME280_temperature;BME280_humidity;BME280_pressure;Samples;Min_cycle;Max_cycle;Signal;HPM_P1;HPM_P2
2023/11/26 00:01:04;;;;;;;14.02;5.40;;;;;;;4.78;100.00;101425.53;4806588;29;20188;-67
2023/11/26 00:03:52;;;;;;;16.38;6.03;;;;;;;4.78;100.00;101427.41;4807022;29;20059;-68
2023/11/26 00:06:43;;;;;;;16.30;5.63;;;;;;;4.75;100.00;101425.97;4781562;29;20050;-67
2023/11/26 00:09:34;;;;;;;17.67;4.97;;;;;;;4.76;100.00;101426.78;4793246;29;20066;-67
2023/11/26 00:12:23;;;;;;;16.35;5.47;;;;;;;4.73;100.00;101424.50;4793019;29;20058;-68
2023/11/26 00:15:13;;;;;;;16.85;5.75;;;;;;;4.69;100.00;101424.94;4805581;29;20133;-68
2023/11/26 00:18:01;;;;;;;15.57;5.25;;;;;;;4.68;100.00;101434.06;4805846;29;20054;-67
2023/11/26 00:20:49;;;;;;;16.00;5.10;;;;;;;4.67;100.00;101426.22;4806679;29;20137;-68
2023/11/26 00:23:37;;;;;;;14.75;5.40;;;;;;;4.68;100.00;101439.47;4792013;29;20394;-69
2023/11/26 00:26:26;;;;;;;17.38;5.38;;;;;;;4.69;100.00;101435.75;4793199;29;20129;-68
2023/11/26 00:29:19;;;;;;;15.43;5.22;;;;;;;4.72;100.00;101436.38;4793406;29;20050;-67
2023/11/26 00:32:08;;;;;;;14.45;4.93;;;;;;;4.70;100.00;101434.69;4806421;29;20068;-66
2023/11/26 00:34:58;;;;;;;12.70;5.10;;;;;;;4.67;100.00;101427.03;4788767;30;20144;-67
2023/11/26 00:37:46;;;;;;;16.63;6.55;;;;;;;4.63;100.00;101423.09;4790180;29;20646;-68
2023/11/26 00:40:34;;;;;;;16.10;5.70;;;;;;;4.62;100.00;101421.44;4792512;29;20494;-66
2023/11/26 00:43:23;;;;;;;13.95;5.22;;;;;;;4.61;100.00;101422.47;4805313;29;20049;-67
2023/11/26 00:46:12;;;;;;;17.90;6.30;;;;;;;4.60;100.00;101423.53;4775478;30;20055;-67
2023/11/26 00:49:05;;;;;;;16.67;5.45;;;;;;;4.58;100.00;101424.78;4803995;29;20050;-68
2023/11/26 00:51:54;;;;;;;14.70;5.35;;;;;;;4.56;100.00;101421.47;4794161;29;20453;-67
2023/11/26 00:54:42;;;;;;;18.05;5.40;;;;;;;4.55;100.00;101431.44;4792349;29;20108;-68
2023/11/26 00:57:30;;;;;;;16.05;5.25;;;;;;;4.53;100.00;101430.81;4778973;29;20173;-68
2023/11/26 01:00:18;;;;;;;16.10;5.68;;;;;;;4.53;100.00;101430.00;4792069;29;20142;-68
2023/11/26 01:03:08;;;;;;;15.05;5.20;;;;;;;4.56;100.00;101440.34;4789955;29;20415;-69
2023/11/26 01:05:56;;;;;;;11.85;4.85;;;;;;;4.55;100.00;101426.03;4779812;29;20051;-68
2023/11/26 01:08:45;;;;;;;15.10;5.20;;;;;;;4.54;100.00;101428.94;4780167;29;20058;-68
2023/11/26 01:11:37;;;;;;;11.82;4.90;;;;;;;4.53;100.00;101441.63;4793656;29;20058;-68
2023/11/26 01:14:25;;;;;;;15.43;5.18;;;;;;;4.50;100.00;101428.56;4792115;29;20047;-68
2023/11/26 01:17:13;;;;;;;15.27;5.20;;;;;;;4.51;100.00;101432.06;4804045;29;20046;-69
2023/11/26 01:20:03;;;;;;;14.68;5.35;;;;;;;4.52;100.00;101431.84;4793401;29;20058;-68
2023/11/26 01:22:52;;;;;;;16.98;5.63;;;;;;;4.52;100.00;101431.84;4784342;29;20142;-67
2023/11/26 01:25:41;;;;;;;11.20;5.15;;;;;;;4.50;100.00;101433.94;4798868;29;20055;-67
2023/11/26 01:28:29;;;;;;;15.60;5.65;;;;;;;4.52;100.00;101434.53;4784645;29;20061;-68
2023/11/26 01:31:17;;;;;;;12.07;5.63;;;;;;;4.52;100.00;101428.31;4779877;29;20137;-67
2023/11/26 01:34:04;;;;;;;14.48;5.45;;;;;;;4.50;100.00;101433.94;4792386;29;20059;-66
2023/11/26 01:36:53;;;;;;;14.13;5.13;;;;;;;4.52;100.00;101441.81;4780130;29;20051;-68
2023/11/26 01:39:41;;;;;;;17.52;5.88;;;;;;;4.50;100.00;101431.25;4791283;29;20540;-67
2023/11/26 01:42:29;;;;;;;17.65;5.30;;;;;;;4.52;100.00;101433.72;4791950;29;20092;-68
2023/11/26 01:45:17;;;;;;;13.50;5.25;;;;;;;4.51;100.00;101430.19;4791012;29;20393;-68
2023/11/26 01:48:05;;;;;;;16.25;5.25;;;;;;;4.53;100.00;101436.22;4801612;29;20470;-68
2023/11/26 01:50:54;;;;;;;16.20;5.95;;;;;;;4.55;100.00;101428.75;4780145;29;20043;-67
2023/11/26 01:53:44;;;;;;;15.35;5.72;;;;;;;4.56;100.00;101432.25;4789970;29;20452;-68
2023/11/26 01:56:33;;;;;;;18.15;6.10;;;;;;;4.55;100.00;101439.53;4793930;29;20065;-67
2023/11/26 01:59:21;;;;;;;15.00;5.60;;;;;;;4.55;100.00;101434.13;4779703;29;20051;-68
2023/11/26 02:02:10;;;;;;;14.70;6.00;;;;;;;4.54;100.00;101440.56;4792444;29;20146;-66
2023/11/26 02:04:58;;;;;;;16.88;6.30;;;;;;;4.56;100.00;101440.34;4792160;29;20054;-67
2023/11/26 02:07:47;;;;;;;15.80;6.53;;;;;;;4.54;100.00;101437.88;4804161;29;20042;-68
2023/11/26 02:10:35;;;;;;;15.70;6.35;;;;;;;4.54;100.00;101439.75;4781192;29;20500;-68
2023/11/26 02:13:23;;;;;;;12.38;5.63;;;;;;;4.53;100.00;101441.63;4780674;29;20047;-67
2023/11/26 02:16:11;;;;;;;13.40;5.18;;;;;;;4.52;100.00;101445.34;4794136;29;20459;-69
2023/11/26 02:19:00;;;;;;;17.95;5.72;;;;;;;4.52;100.00;101444.50;4806528;29;20119;-66
2023/11/26 02:21:48;;;;;;;16.35;5.75;;;;;;;4.52;100.00;101441.81;4781859;29;20201;-68
2023/11/26 02:24:49;;;;;;;13.40;5.38;;;;;;;4.54;100.00;101439.75;4771388;30;20055;-67
2023/11/26 02:27:37;;;;;;;14.98;5.95;;;;;;;4.52;100.00;101437.25;4795713;29;20055;-67
2023/11/26 02:30:26;;;;;;;15.00;5.60;;;;;;;4.52;100.00;101439.13;4796358;29;20141;-67
2023/11/26 02:33:14;;;;;;;16.35;5.75;;;;;;;4.49;100.00;101430.41;4809538;29;20435;-67
2023/11/26 02:36:05;;;;;;;18.40;5.65;;;;;;;4.52;100.00;101441.81;4795847;29;20110;-68
2023/11/26 02:38:54;;;;;;;13.23;5.40;;;;;;;4.49;100.00;101452.00;4790326;30;20459;-67
2023/11/26 02:41:42;;;;;;;13.65;4.85;;;;;;;4.48;100.00;101439.56;4801387;29;20054;-67
2023/11/26 02:44:30;;;;;;;15.43;5.65;;;;;;;4.46;100.00;101443.50;4782360;29;20055;-67
2023/11/26 02:47:18;;;;;;;12.57;4.95;;;;;;;4.43;100.00;101452.84;4807894;29;20050;-67
2023/11/26 02:50:10;;;;;;;17.05;5.20;;;;;;;4.43;100.00;101446.63;4807955;29;20457;-67
2023/11/26 02:52:58;;;;;;;13.55;5.05;;;;;;;4.43;100.00;101449.34;4795796;29;20519;-67
2023/11/26 02:55:47;;;;;;;14.43;5.70;;;;;;;4.43;100.00;101449.34;4806577;29;20527;-68
2023/11/26 02:58:35;;;;;;;13.48;4.82;;;;;;;4.42;100.00;101442.25;4807746;29;20062;-68
2023/11/26 03:01:25;;;;;;;15.85;5.18;;;;;;;4.40;100.00;101442.50;4795320;29;20062;-68
2023/11/26 03:04:19;;;;;;;10.60;4.72;;;;;;;4.40;100.00;101447.03;4795777;29;20051;-68
2023/11/26 03:07:10;;;;;;;14.45;5.10;;;;;;;4.40;100.00;101436.25;4799294;30;20055;-64
2023/11/26 03:13:11;;;;;;;13.75;4.93;;;;;;;4.39;100.00;101440.00;4827163;29;20078;-66
2023/11/26 03:15:59;;;;;;;12.57;4.60;;;;;;;4.36;100.00;101441.25;4784945;30;20112;-68
2023/11/26 03:18:49;;;;;;;14.15;4.25;;;;;;;4.35;100.00;101438.75;4824223;29;20043;-64
2023/11/26 03:21:37;;;;;;;14.10;4.55;;;;;;;4.33;100.00;101443.53;4827591;29;20054;-64
2023/11/26 03:24:24;;;;;;;13.60;4.72;;;;;;;4.32;100.00;101440.00;4805145;29;20047;-68
2023/11/26 03:27:12;;;;;;;12.07;4.32;;;;;;;4.33;100.00;101435.44;4800459;29;20050;-67
2023/11/26 03:30:01;;;;;;;11.95;3.92;;;;;;;4.33;100.00;101435.44;4796039;29;20046;-67
2023/11/26 03:32:49;;;;;;;13.82;4.32;;;;;;;4.30;100.00;101435.88;4795857;29;20050;-67
2023/11/26 03:35:37;;;;;;;13.23;4.65;;;;;;;4.28;100.00;101438.75;4795688;29;20588;-67
2023/11/26 03:38:25;;;;;;;13.32;4.22;;;;;;;4.29;100.00;101435.03;4810882;29;20118;-68
2023/11/26 03:41:13;;;;;;;13.82;4.20;;;;;;;4.28;100.00;101438.75;4802705;29;20065;-66
2023/11/26 03:44:01;;;;;;;15.63;4.18;;;;;;;4.28;100.00;101436.06;4786802;29;20051;-67
2023/11/26 03:46:49;;;;;;;13.82;4.45;;;;;;;4.29;100.00;101443.13;4804784;29;20208;-67
2023/11/26 03:49:37;;;;;;;16.73;5.00;;;;;;;4.27;100.00;101443.34;4794291;29;20196;-67
2023/11/26 03:52:26;;;;;;;13.27;3.95;;;;;;;4.28;100.00;101449.56;4794159;29;20058;-68
2023/11/26 03:55:14;;;;;;;10.32;4.18;;;;;;;4.26;100.00;101441.69;4806258;29;20051;-68
2023/11/26 03:58:02;;;;;;;12.50;4.28;;;;;;;4.23;100.00;101450.22;4803929;29;20141;-67
2023/11/26 04:00:52;;;;;;;12.38;3.88;;;;;;;4.23;100.00;101447.50;4793220;29;20055;-67
2023/11/26 04:03:40;;;;;;;15.82;4.30;;;;;;;4.22;100.00;101445.84;4806788;29;20458;-67
2023/11/26 04:06:28;;;;;;;11.27;3.97;;;;;;;4.25;100.00;101456.19;4780623;29;20051;-67
2023/11/26 04:09:18;;;;;;;11.40;3.95;;;;;;;4.24;100.00;101448.34;4807144;29;20184;-66
2023/11/26 04:12:07;;;;;;;13.25;4.20;;;;;;;4.23;100.00;101436.72;4783074;29;20054;-67
2023/11/26 04:15:02;;;;;;;12.10;3.85;;;;;;;4.24;100.00;101449.16;4793560;29;20496;-69
2023/11/26 04:17:52;;;;;;;10.05;3.78;;;;;;;4.25;100.00;101445.41;4805003;29;20062;-68
2023/11/26 04:20:41;;;;;;;14.00;3.50;;;;;;;4.24;100.00;101454.56;4807512;29;20062;-68
2023/11/26 04:23:29;;;;;;;10.95;3.78;;;;;;;4.24;100.00;101451.84;4792857;29;20572;-68
2023/11/26 04:26:17;;;;;;;13.73;3.95;;;;;;;4.26;100.00;101452.47;4797223;29;20055;-68
2023/11/26 04:29:05;;;;;;;11.05;3.75;;;;;;;4.29;100.00;101455.81;4807126;29;20535;-68
2023/11/26 04:31:53;;;;;;;14.75;4.18;;;;;;;4.31;100.00;101459.13;4805782;29;20107;-67
2023/11/26 04:34:41;;;;;;;11.32;3.70;;;;;;;4.34;100.00;101458.69;4806316;29;20416;-66
2023/11/26 04:37:29;;;;;;;11.60;4.00;;;;;;;4.35;100.00;101458.47;4779090;29;20183;-68
2023/11/26 04:40:18;;;;;;;10.00;4.03;;;;;;;4.35;100.00;101460.34;4804749;29;20119;-69
2023/11/26 04:43:06;;;;;;;12.65;3.72;;;;;;;4.34;100.00;101450.59;4791282;29;20055;-68
2023/11/26 04:45:54;;;;;;;10.90;3.58;;;;;;;4.36;100.00;101451.22;4805093;29;20530;-68
2023/11/26 04:48:43;;;;;;;12.18;3.30;;;;;;;4.36;100.00;101453.91;4805602;29;20050;-68
2023/11/26 04:51:35;;;;;;;13.05;3.88;;;;;;;4.39;100.00;101461.56;4806128;29;20051;-68
2023/11/26 04:54:26;;;;;;;12.70;3.60;;;;;;;4.41;100.00;101454.09;4795601;29;20057;-68
2023/11/26 04:57:15;;;;;;;12.05;3.70;;;;;;;4.43;100.00;101457.44;4791686;29;20180;-68
2023/11/26 05:00:04;;;;;;;11.32;3.53;;;;;;;4.46;100.00;101463.22;4798036;29;20062;-69
2023/11/26 05:02:53;;;;;;;10.65;3.60;;;;;;;4.48;100.00;101455.75;4779951;29;20062;-68
2023/11/26 05:05:41;;;;;;;11.13;3.45;;;;;;;4.50;100.00;101463.63;4791948;29;20051;-68
2023/11/26 05:08:29;;;;;;;8.75;3.30;;;;;;;4.49;100.00;101459.25;4806269;29;20160;-68
2023/11/26 05:11:17;;;;;;;11.75;3.38;;;;;;;4.50;100.00;101458.25;4804106;29;20062;-69
2023/11/26 05:14:05;;;;;;;10.50;3.38;;;;;;;4.50;100.00;101460.94;4786527;29;20054;-67
2023/11/26 05:16:54;;;;;;;9.40;3.42;;;;;;;4.49;100.00;101459.25;4791563;29;20046;-68
2023/11/26 05:19:42;;;;;;;10.48;3.65;;;;;;;4.49;100.00;101462.78;4793603;29;20065;-68
2023/11/26 05:22:30;;;;;;;10.48;3.25;;;;;;;4.48;100.00;101453.03;4779238;29;20534;-68
2023/11/26 05:25:18;;;;;;;7.63;3.20;;;;;;;4.50;100.00;101444.75;4804692;29;20082;-68
2023/11/26 05:28:06;;;;;;;10.88;3.35;;;;;;;4.51;100.00;101459.88;4804861;29;20099;-67
2023/11/26 05:30:54;;;;;;;8.98;2.90;;;;;;;4.52;100.00;101458.00;4805164;29;20082;-68
2023/11/26 05:33:42;;;;;;;10.18;3.33;;;;;;;4.48;100.00;101460.31;4775246;30;20410;-67
2023/11/26 05:36:30;;;;;;;11.60;3.13;;;;;;;4.49;100.00;101459.25;4802853;29;20633;-68
2023/11/26 05:39:19;;;;;;;12.00;3.55;;;;;;;4.49;100.00;101459.25;4781330;29;20147;-68
2023/11/26 05:42:08;;;;;;;8.68;2.90;;;;;;;4.52;100.00;101463.41;4805489;29;20183;-68
2023/11/26 05:44:56;;;;;;;9.23;3.25;;;;;;;4.51;100.00;101467.16;4803940;29;20276;-68
2023/11/26 05:47:44;;;;;;;12.18;3.67;;;;;;;4.50;100.00;101471.72;4805515;29;20050;-68
2023/11/26 05:50:32;;;;;;;12.23;3.50;;;;;;;4.52;100.00;101468.81;4793067;29;21084;-68
2023/11/26 05:53:20;;;;;;;10.55;3.17;;;;;;;4.52;100.00;101472.31;4795000;29;20054;-68
2023/11/26 05:56:09;;;;;;;11.63;3.17;;;;;;;4.54;100.00;101470.25;4771771;29;20039;-68
2023/11/26 05:58:56;;;;;;;8.95;3.10;;;;;;;4.55;100.00;101471.09;4808844;29;20047;-67
2023/11/26 06:01:44;;;;;;;8.40;2.90;;;;;;;4.56;100.00;101473.56;4807499;29;20134;-67
2023/11/26 06:04:33;;;;;;;10.00;3.08;;;;;;;4.57;100.00;101461.75;4808507;29;20535;-68
2023/11/26 06:07:21;;;;;;;12.45;3.28;;;;;;;4.59;100.00;101469.63;4796173;29;20059;-68
2023/11/26 06:10:09;;;;;;;11.45;3.25;;;;;;;4.59;100.00;101454.25;4807572;29;20419;-68
2023/11/26 06:12:57;;;;;;;9.35;3.08;;;;;;;4.61;100.00;101454.88;4808342;29;20089;-67
2023/11/26 06:15:45;;;;;;;9.90;3.10;;;;;;;4.62;100.00;101451.13;4795464;29;20130;-67
2023/11/26 06:18:33;;;;;;;8.90;3.00;;;;;;;4.64;100.00;101448.22;4795629;29;20065;-68
2023/11/26 06:21:21;;;;;;;7.20;2.70;;;;;;;4.64;100.00;101449.06;4808138;29;20050;-68
2023/11/26 06:24:10;;;;;;;9.77;3.03;;;;;;;4.65;100.00;101449.88;4795473;29;20062;-68
2023/11/26 06:26:59;;;;;;;8.70;2.85;;;;;;;4.68;100.00;101460.25;4791615;29;20118;-70
2023/11/26 06:29:47;;;;;;;8.07;2.92;;;;;;;4.71;100.00;101459.81;4785426;29;20047;-68
2023/11/26 06:32:35;;;;;;;10.40;3.28;;;;;;;4.72;100.00;101460.66;4776820;30;20047;-69
2023/11/26 06:35:23;;;;;;;10.40;2.83;;;;;;;4.73;100.00;101459.59;4783497;29;20142;-68
2023/11/26 06:38:11;;;;;;;10.23;3.20;;;;;;;4.70;100.00;101453.59;4807992;29;20141;-67
2023/11/26 06:41:00;;;;;;;10.30;3.47;;;;;;;4.69;100.00;101457.34;4806924;29;20531;-68
2023/11/26 06:43:51;;;;;;;8.90;3.00;;;;;;;4.69;100.00;101457.34;4809054;29;20066;-68
2023/11/26 06:46:39;;;;;;;10.43;3.17;;;;;;;4.71;100.00;101449.00;4791938;29;20170;-68
2023/11/26 06:49:27;;;;;;;10.25;3.78;;;;;;;4.73;100.00;101451.50;4791392;30;20051;-67
2023/11/26 06:52:15;;;;;;;7.75;3.10;;;;;;;4.74;100.00;101448.59;4806659;29;20055;-68
2023/11/26 06:55:05;;;;;;;10.40;3.25;;;;;;;4.76;100.00;101454.59;4785656;29;20142;-67
2023/11/26 06:57:53;;;;;;;10.10;3.45;;;;;;;4.78;100.00;101451.69;4796051;29;20192;-67
2023/11/26 07:00:41;;;;;;;11.32;3.28;;;;;;;4.78;100.00;101451.69;4794593;29;20099;-67
2023/11/26 07:03:29;;;;;;;8.57;2.95;;;;;;;4.79;100.00;101458.78;4795518;29;20051;-68
2023/11/26 07:06:17;;;;;;;9.07;3.25;;;;;;;4.79;100.00;101459.59;4777928;30;20149;-67
2023/11/26 07:09:08;;;;;;;13.57;3.30;;;;;;;4.78;100.00;101455.22;4777925;30;20055;-68
2023/11/26 07:11:57;;;;;;;9.60;3.15;;;;;;;4.79;100.00;101456.88;4775286;30;20055;-67
2023/11/26 07:14:46;;;;;;;12.05;3.10;;;;;;;4.82;100.00;101461.03;4794904;29;20046;-69
2023/11/26 07:17:34;;;;;;;9.60;3.38;;;;;;;4.83;100.00;101462.69;4808420;29;20059;-68
2023/11/26 07:20:22;;;;;;;11.63;3.50;;;;;;;4.83;100.00;101462.69;4808298;29;20047;-67
2023/11/26 07:23:11;;;;;;;11.23;3.10;;;;;;;4.84;100.00;101461.66;4804026;29;20050;-68
2023/11/26 07:25:59;;;;;;;12.23;3.35;;;;;;;4.84;100.00;101465.16;4808935;29;20211;-70
2023/11/26 07:28:50;;;;;;;11.38;3.30;;;;;;;4.81;100.00;101460.22;4791088;29;20059;-67
2023/11/26 07:31:39;;;;;;;11.82;3.50;;;;;;;4.82;100.00;101455.63;4799042;29;20058;-68
2023/11/26 07:34:26;;;;;;;13.20;3.53;;;;;;;4.80;100.00;101458.53;4808021;29;20055;-66
2023/11/26 07:37:14;;;;;;;11.38;3.55;;;;;;;4.77;100.00;101452.75;4133571;29;10000596;-65
2023/11/26 07:40:07;;;;;;;12.65;3.88;;;;;;;4.76;100.00;101456.47;4806637;29;20088;-68
2023/11/26 07:42:55;;;;;;;13.35;3.67;;;;;;;4.79;100.00;101461.47;4793996;29;20104;-66
2023/11/26 07:45:44;;;;;;;12.00;3.50;;;;;;;4.80;100.00;101463.94;4796879;29;20059;-67
2023/11/26 07:48:32;;;;;;;12.35;3.55;;;;;;;4.80;100.00;101465.81;4792336;29;20420;-67
2023/11/26 07:51:20;;;;;;;11.05;3.38;;;;;;;4.82;100.00;101459.16;4804932;29;20066;-68
2023/11/26 07:54:08;;;;;;;8.60;3.10;;;;;;;4.83;100.00;101473.47;4791334;29;20532;-66
2023/11/26 07:57:10;;;;;;;13.50;3.67;;;;;;;4.83;100.00;101474.28;4801637;29;20058;-68
2023/11/26 07:59:59;;;;;;;10.13;3.42;;;;;;;4.86;100.00;101473.06;4805509;29;20057;-68
2023/11/26 08:02:47;;;;;;;11.45;3.67;;;;;;;4.87;100.00;101469.31;4782592;29;20388;-68
2023/11/26 08:05:36;;;;;;;9.63;3.50;;;;;;;4.90;100.00;101471.56;4778662;29;20547;-68
2023/11/26 08:08:25;;;;;;;11.65;3.85;;;;;;;4.90;100.00;101471.56;4793287;29;20055;-67
2023/11/26 08:11:16;;;;;;;11.40;3.10;;;;;;;4.91;100.00;101463.28;4775470;30;20119;-67
2023/11/26 08:14:04;;;;;;;11.45;3.65;;;;;;;4.93;100.00;101465.78;4767620;29;20347;-67
2023/11/26 08:16:54;;;;;;;10.27;3.22;;;;;;;4.93;100.00;101473.88;4806384;29;20043;-66
2023/11/26 08:19:43;;;;;;;14.20;3.85;;;;;;;4.94;100.00;101474.69;4791284;29;20051;-67
2023/11/26 08:22:31;;;;;;;10.27;3.35;;;;;;;4.94;100.00;101470.13;4803470;29;20139;-67
2023/11/26 08:25:23;;;;;;;9.50;3.30;;;;;;;4.96;100.00;101468.03;4761261;29;20058;-68
2023/11/26 08:28:13;;;;;;;14.48;3.30;;;;;;;4.97;100.00;101461.56;4790029;29;20432;-67
2023/11/26 08:31:01;;;;;;;9.70;3.20;;;;;;;4.98;100.00;101471.34;4789780;29;20054;-68
2023/11/26 08:33:49;;;;;;;11.00;3.40;;;;;;;4.98;100.00;101476.75;4790801;29;20058;-67
2023/11/26 08:36:44;;;;;;;10.60;3.50;;;;;;;4.99;100.00;101467.59;4781998;30;20126;-66
2023/11/26 08:39:34;;;;;;;8.70;3.15;;;;;;;5.01;100.00;101472.78;4760233;30;20184;-67
2023/11/26 08:42:22;;;;;;;12.48;3.83;;;;;;;5.02;100.00;101471.72;4774293;29;20146;-67
2023/11/26 08:45:10;;;;;;;9.10;3.67;;;;;;;5.04;100.00;101470.47;4785634;30;20078;-66
2023/11/26 08:47:59;;;;;;;13.05;3.63;;;;;;;5.05;100.00;101463.19;4790439;29;20618;-67
2023/11/26 08:50:47;;;;;;;14.85;3.85;;;;;;;5.06;100.00;101462.16;4778389;29;20051;-68
2023/11/26 08:53:36;;;;;;;11.55;3.20;;;;;;;5.07;100.00;101464.63;4800907;29;20445;-68
2023/11/26 08:56:25;;;;;;;12.10;4.05;;;;;;;5.09;100.00;101467.13;4773369;29;20541;-67
2023/11/26 08:59:13;;;;;;;9.10;3.38;;;;;;;5.12;100.00;101472.09;4803907;29;20106;-68
2023/11/26 09:02:01;;;;;;;12.50;3.63;;;;;;;5.17;100.00;101464.19;4790001;29;20061;-66
2023/11/26 09:04:49;;;;;;;11.65;3.70;;;;;;;5.19;100.00;101470.19;4773267;29;20059;-66
2023/11/26 09:07:42;;;;;;;11.20;4.03;;;;;;;5.20;100.00;101471.84;4801380;29;20058;-66
2023/11/26 09:10:30;;;;;;;12.27;3.95;;;;;;;5.20;100.00;101479.16;4801264;29;20062;-65
2023/11/26 09:13:18;;;;;;;15.75;4.18;;;;;;;5.22;100.00;101474.31;4789683;29;20042;-66
2023/11/26 09:16:06;;;;;;;16.38;4.47;;;;;;;5.23;100.00;101470.59;4801987;29;20453;-67
2023/11/26 09:18:54;;;;;;;15.30;5.00;;;;;;;5.25;100.00;101473.91;4791720;29;20046;-65
2023/11/26 09:21:49;;;;;;;11.50;4.15;;;;;;;5.27;100.00;101471.84;4790109;29;20046;-67
2023/11/26 09:24:37;;;;;;;12.40;4.53;;;;;;;5.29;100.00;101467.88;4765342;29;20135;-67
2023/11/26 09:27:26;;;;;;;15.20;4.57;;;;;;;5.30;100.00;101464.09;4789793;29;20505;-66
2023/11/26 09:30:14;;;;;;;12.50;4.30;;;;;;;5.34;100.00;101475.31;4803418;29;20054;-64
2023/11/26 09:33:02;;;;;;;13.18;4.45;;;;;;;5.37;100.00;101471.34;4800396;29;20050;-66
2023/11/26 09:35:51;;;;;;;12.65;4.03;;;;;;;5.40;100.00;101469.03;4791095;29;20058;-67
2023/11/26 09:38:39;;;;;;;17.67;4.20;;;;;;;5.42;100.00;101472.34;4809964;29;20050;-68
2023/11/26 09:41:27;;;;;;;13.23;4.72;;;;;;;5.45;100.00;101466.50;4793519;29;20126;-66
2023/11/26 09:44:15;;;;;;;12.27;3.95;;;;;;;5.48;100.00;101474.19;4792570;29;20141;-66
2023/11/26 09:47:03;;;;;;;8.88;3.65;;;;;;;5.48;100.00;101476.91;4805153;29;20054;-68
2023/11/26 09:49:51;;;;;;;12.75;5.10;;;;;;;5.48;100.00;101476.91;4804556;29;20054;-66
2023/11/26 09:52:40;;;;;;;13.23;4.10;;;;;;;5.47;100.00;101469.81;4780239;29;20133;-66
2023/11/26 09:55:40;;;;;;;10.73;4.20;;;;;;;5.48;100.00;101476.91;4786463;29;20054;-64
2023/11/26 09:58:28;;;;;;;13.40;3.85;;;;;;;5.51;100.00;101468.34;4774451;30;20278;-66
2023/11/26 10:01:16;;;;;;;12.23;4.03;;;;;;;5.53;100.00;101462.69;4789534;29;20130;-65
2023/11/26 10:04:04;;;;;;;13.88;4.55;;;;;;;5.54;100.00;101462.50;4780615;29;20062;-65
2023/11/26 10:06:54;;;;;;;12.10;4.38;;;;;;;5.55;100.00;101469.53;4792064;29;20294;-67
2023/11/26 10:10:09;;;;;;;13.48;4.70;;;;;;;5.58;100.00;101467.44;4779393;29;20524;-66
2023/11/26 10:12:59;;;;;;;12.05;3.92;;;;;;;5.59;100.00;101461.03;4803610;29;20059;-66
2023/11/26 10:15:50;;;;;;;15.27;4.85;;;;;;;5.60;100.00;101465.38;4781694;29;20497;-66
2023/11/26 10:18:42;;;;;;;13.48;4.53;;;;;;;5.61;100.00;101465.16;4780490;29;20059;-66
2023/11/26 10:21:31;;;;;;;12.82;4.32;;;;;;;5.62;100.00;101460.56;4802600;29;20139;-67
2023/11/26 10:24:22;;;;;;;12.30;4.05;;;;;;;5.63;100.00;101451.41;4790981;29;20061;-66
2023/11/26 10:27:13;;;;;;;10.55;4.03;;;;;;;5.66;100.00;101453.69;4791147;29;20046;-66
2023/11/26 10:30:02;;;;;;;16.55;4.43;;;;;;;5.67;100.00;101447.22;4803584;29;20171;-66
2023/11/26 10:33:04;;;;;;;15.18;4.70;;;;;;;5.63;100.00;101443.28;4789233;29;20050;-64
2023/11/26 10:35:54;;;;;;;13.07;4.47;;;;;;;5.63;100.00;101448.69;4789908;29;20235;-66
2023/11/26 10:42:17;;;;;;;14.18;5.38;;;;;;;5.64;100.00;101447.66;4933863;24;20498;-66
2023/11/26 10:45:06;;;;;;;15.63;4.20;;;;;;;5.64;100.00;101443.09;4828830;29;20053;-64
2023/11/26 10:47:56;;;;;;;11.55;4.15;;;;;;;5.65;100.00;101435.78;4830437;29;20422;-65
2023/11/26 10:51:08;;;;;;;15.60;4.32;;;;;;;5.67;100.00;101434.53;4803720;29;20137;-66
2023/11/26 10:54:17;;;;;;;11.48;4.57;;;;;;;5.70;100.00;101430.53;4829672;29;20648;-65
2023/11/26 10:57:16;;;;;;;12.90;4.35;;;;;;;5.72;100.00;101431.16;4833445;29;20129;-65
2023/11/26 11:00:08;;;;;;;12.68;4.40;;;;;;;5.73;100.00;101424.72;4840522;29;20149;-64
2023/11/26 11:02:57;;;;;;;11.27;3.92;;;;;;;5.75;100.00;101428.03;4833184;29;20515;-66
2023/11/26 11:05:48;;;;;;;11.80;4.13;;;;;;;5.78;100.00;101427.59;4813305;29;20549;-63
2023/11/26 11:08:41;;;;;;;10.38;3.85;;;;;;;5.78;100.00;101433.00;4834552;29;20050;-66
2023/11/26 11:11:56;;;;;;;17.02;4.35;;;;;;;5.80;100.00;101430.91;4842728;29;20053;-67
2023/11/26 11:14:45;;;;;;;11.40;3.83;;;;;;;5.84;100.00;101428.56;4848245;29;20043;-66
2023/11/26 11:17:34;;;;;;;12.52;4.15;;;;;;;5.97;100.00;101420.38;4825779;29;20046;-67
2023/11/26 11:21:10;;;;;;;8.95;3.50;;;;;;;6.00;100.00;101416.41;4836784;29;20072;-65
2023/11/26 11:24:00;;;;;;;11.77;4.05;;;;;;;6.00;100.00;101419.09;4829845;29;20078;-65
2023/11/26 11:26:48;;;;;;;13.93;4.45;;;;;;;5.98;100.00;101417.44;4835514;29;20064;-65
2023/11/26 11:29:36;;;;;;;11.35;4.05;;;;;;;5.98;100.00;101414.72;4832795;29;20058;-65
2023/11/26 11:32:24;;;;;;;14.73;4.55;;;;;;;6.00;100.00;101414.50;4843486;29;20057;-66
2023/11/26 11:35:36;;;;;;;9.82;3.92;;;;;;;6.02;100.00;101417.81;4838996;29;20174;-66
2023/11/26 11:39:03;;;;;;;12.10;4.53;;;;;;;6.03;100.00;101415.94;4459182;29;10001985;-66
2023/11/26 11:41:57;;;;;;;10.77;3.67;;;;;;;6.04;100.00;101420.28;4830099;29;20280;-66
2023/11/26 11:44:46;;;;;;;9.80;3.97;;;;;;;6.08;100.00;101421.50;4837341;29;20414;-69
2023/11/26 11:47:44;;;;;;;10.88;3.88;;;;;;;6.08;100.00;101410.69;4823185;29;20175;-66
2023/11/26 11:50:32;;;;;;;9.95;3.70;;;;;;;6.08;100.00;101416.09;4840600;29;20415;-66
2023/11/26 11:53:20;;;;;;;11.27;4.03;;;;;;;6.10;100.00;101416.72;4826734;29;20132;-65
2023/11/26 11:56:20;;;;;;;9.77;3.40;;;;;;;6.09;100.00;101417.78;4822357;29;20050;-67
2023/11/26 11:59:08;;;;;;;8.32;3.53;;;;;;;6.10;100.00;101414.00;4841592;29;20054;-64
2023/11/26 12:01:58;;;;;;;11.23;3.70;;;;;;;6.11;100.00;101418.34;4827246;29;20045;-65
2023/11/26 12:04:47;;;;;;;8.80;3.47;;;;;;;6.11;100.00;101408.38;4822725;29;20046;-66
2023/11/26 12:07:35;;;;;;;9.20;3.60;;;;;;;6.12;100.00;101412.72;4822187;29;20043;-66
2023/11/26 12:10:32;;;;;;;11.10;4.68;;;;;;;6.13;100.00;101403.56;4823784;29;20051;-66
2023/11/26 12:13:21;;;;;;;9.73;3.63;;;;;;;6.14;100.00;101404.41;4821219;29;20046;-70
2023/11/26 12:16:09;;;;;;;9.90;3.28;;;;;;;6.12;100.00;101401.09;4823214;29;20079;-66
2023/11/26 12:18:57;;;;;;;13.65;4.00;;;;;;;6.11;100.00;101410.22;4822420;29;20058;-66
2023/11/26 12:21:45;;;;;;;11.77;4.25;;;;;;;6.11;100.00;101410.22;4796501;29;20058;-67
2023/11/26 12:24:35;;;;;;;8.35;3.67;;;;;;;6.11;100.00;101404.81;4827509;29;20049;-67
2023/11/26 12:27:23;;;;;;;9.20;3.30;;;;;;;6.13;100.00;101413.53;4822127;29;20064;-67
2023/11/26 12:30:13;;;;;;;9.73;3.55;;;;;;;6.12;100.00;101409.19;4822891;29;20550;-68
2023/11/26 12:33:04;;;;;;;7.10;3.03;;;;;;;6.11;100.00;101408.38;4808288;29;20050;-67
2023/11/26 12:35:52;;;;;;;11.82;3.30;;;;;;;6.11;100.00;101402.97;4821913;29;20042;-68
2023/11/26 12:38:42;;;;;;;5.75;2.58;;;;;;;6.14;100.00;101394.41;4821471;29;20415;-67
2023/11/26 12:41:30;;;;;;;8.30;3.58;;;;;;;6.14;100.00;101393.56;4839539;29;20080;-66
2023/11/26 12:44:20;;;;;;;7.63;2.80;;;;;;;6.15;100.00;101384.38;4819960;29;20206;-66
2023/11/26 12:47:12;;;;;;;6.82;2.58;;;;;;;6.15;100.00;101387.09;4816849;29;20137;-67
2023/11/26 12:50:02;;;;;;;6.82;2.90;;;;;;;6.17;100.00;101390.41;4827433;29;20065;-67
2023/11/26 12:52:51;;;;;;;6.72;2.65;;;;;;;6.17;100.00;101385.00;4827358;29;20132;-69
2023/11/26 12:55:45;;;;;;;5.30;2.30;;;;;;;6.15;100.00;101385.22;4825940;29;20531;-65
2023/11/26 12:58:34;;;;;;;7.25;2.60;;;;;;;6.16;100.00;101391.47;4836860;29;20042;-68
2023/11/26 13:01:26;;;;;;;6.28;2.58;;;;;;;6.18;100.00;101386.63;4828317;29;20068;-66
2023/11/26 13:04:14;;;;;;;4.47;2.15;;;;;;;6.19;100.00;101377.50;4840294;29;20189;-68
2023/11/26 13:07:04;;;;;;;4.95;2.22;;;;;;;6.18;100.00;101378.53;4839395;29;20045;-66
2023/11/26 13:09:54;;;;;;;7.05;2.83;;;;;;;6.18;100.00;101383.94;4829067;29;20125;-68